Time;durP1;ratioP1;P1;durP2;ratioP2;P2;SDS_P1;SDS_P2;PMS_P1;PMS_P2;Temp;Humidity;BMP_temperature;BMP_pressure;BME280_temperature;BME280_humidity;BME280_pressure;Samples;Min_cycle;Max_cycle;Signal;HPM_P1;HPM_P2
2020/12/07 00:01:12;;;;;;;;;;;5.80;81.50;;;;;;5074165;28;19939;-80
2020/12/07 00:03:38;;;;;;;;;;;5.80;81.40;;;;;;5108221;28;19962;-80
2020/12/07 00:06:03;;;;;;;;;;;5.80;81.40;;;;;;5096277;28;19920;-80
2020/12/07 00:08:29;;;;;;;;;;;5.70;81.30;;;;;;5094593;28;19920;-80
2020/12/07 00:10:54;;;;;;;;;;;5.70;81.40;;;;;;5094315;28;19963;-80
2020/12/07 00:13:20;;;;;;;;;;;5.70;81.50;;;;;;5094692;28;20007;-80
2020/12/07 00:15:45;;;;;;;;;;;5.70;81.40;;;;;;5094451;28;19969;-80
2020/12/07 00:18:11;;;;;;;;;;;5.70;81.50;;;;;;5094590;28;19912;-80
2020/12/07 00:20:36;;;;;;;;;;;5.70;81.60;;;;;;5112823;28;19958;-80
2020/12/07 00:23:02;;;;;;;;;;;5.70;81.60;;;;;;5112673;28;19908;-80
2020/12/07 00:25:27;;;;;;;;;;;5.70;81.60;;;;;;5112587;28;20340;-80
2020/12/07 00:27:53;;;;;;;;;;;5.70;81.60;;;;;;5094409;28;19920;-80
2020/12/07 00:30:18;;;;;;;;;;;5.70;81.90;;;;;;5077406;28;19920;-80
2020/12/07 00:32:44;;;;;;;;;;;5.70;81.90;;;;;;5111476;28;19920;-80
2020/12/07 00:35:10;;;;;;;;;;;5.70;82.20;;;;;;5077769;28;20361;-80
2020/12/07 00:37:35;;;;;;;;;;;5.70;82.20;;;;;;5094468;28;19915;-80
2020/12/07 00:40:01;;;;;;;;;;;5.70;82.10;;;;;;5096222;28;19952;-80
2020/12/07 00:42:26;;;;;;;;;;;5.70;82.00;;;;;;5081245;28;19912;-80
2020/12/07 00:44:51;;;;;;;;;;;5.70;81.90;;;;;;5097951;28;19912;-80
2020/12/07 00:47:17;;;;;;;;;;;5.70;82.00;;;;;;5115133;28;20353;-80
2020/12/07 00:49:43;;;;;;;;;;;5.70;81.80;;;;;;5116288;28;19919;-80
2020/12/07 00:52:08;;;;;;;;;;;5.70;81.90;;;;;;5114925;28;19919;-80
2020/12/07 00:54:34;;;;;;;;;;;5.70;82.00;;;;;;5098250;28;20014;-80
2020/12/07 00:57:00;;;;;;;;;;;5.70;82.00;;;;;;5116335;28;19949;-80
2020/12/07 00:59:26;;;;;;;;;;;5.70;82.30;;;;;;5097811;28;20041;-80
2020/12/07 01:01:52;;;;;;;;;;;5.70;82.20;;;;;;5116103;28;19914;-80
2020/12/07 01:04:18;;;;;;;;;;;5.70;82.10;;;;;;5116248;28;19908;-80
2020/12/07 01:06:45;;;;;;;;;;;5.70;82.00;;;;;;5097676;28;19980;-80
2020/12/07 01:09:11;;;;;;;;;;;5.70;81.90;;;;;;5116017;28;19912;-80
2020/12/07 01:11:37;;;;;;;;;;;5.80;82.10;;;;;;5112387;28;19940;-80
2020/12/07 01:14:02;;;;;;;;;;;5.80;81.90;;;;;;5095526;28;19992;-80
2020/12/07 01:16:28;;;;;;;;;;;5.80;81.80;;;;;;5095772;28;20008;-80
2020/12/07 01:18:53;;;;;;;;;;;5.80;81.80;;;;;;5095291;28;20354;-80
2020/12/07 01:21:19;;;;;;;;;;;5.80;81.80;;;;;;5095558;28;19916;-80
2020/12/07 01:23:45;;;;;;;;;;;5.80;81.80;;;;;;5094015;28;20106;-80
2020/12/07 01:26:11;;;;;;;;;;;5.80;81.80;;;;;;5093553;28;19924;-80
2020/12/07 01:28:37;;;;;;;;;;;5.80;81.80;;;;;;5095325;28;20287;-80
2020/12/07 01:31:03;;;;;;;;;;;5.80;81.90;;;;;;5095232;28;19908;-80
2020/12/07 01:33:28;;;;;;;;;;;5.80;81.90;;;;;;5095830;28;20266;-80
2020/12/07 01:35:54;;;;;;;;;;;5.80;81.90;;;;;;5094320;28;20388;-80
2020/12/07 01:38:20;;;;;;;;;;;5.80;82.00;;;;;;5093213;28;20319;-80
2020/12/07 01:40:45;;;;;;;;;;;5.70;81.90;;;;;;5110400;28;19961;-80
2020/12/07 01:43:11;;;;;;;;;;;5.80;82.00;;;;;;5094940;28;19972;-80
2020/12/07 01:45:37;;;;;;;;;;;5.70;82.00;;;;;;5115122;28;19912;-80
2020/12/07 01:48:02;;;;;;;;;;;5.80;82.00;;;;;;5115207;28;20361;-81
2020/12/07 01:50:28;;;;;;;;;;;5.80;81.90;;;;;;5115075;28;19911;-80
2020/12/07 01:52:53;;;;;;;;;;;5.70;81.80;;;;;;5079513;28;19931;-80
2020/12/07 01:55:19;;;;;;;;;;;5.70;81.90;;;;;;5076717;28;20263;-80
2020/12/07 01:57:44;;;;;;;;;;;5.70;81.80;;;;;;5077103;28;19916;-81
2020/12/07 02:00:10;;;;;;;;;;;5.80;81.90;;;;;;5093403;28;19939;-80
2020/12/07 02:02:35;;;;;;;;;;;5.80;81.70;;;;;;5119151;27;19911;-80
2020/12/07 02:05:01;;;;;;;;;;;5.80;81.80;;;;;;5114700;28;19951;-80
2020/12/07 02:07:27;;;;;;;;;;;5.80;82.00;;;;;;5096840;28;20254;-80
2020/12/07 02:09:52;;;;;;;;;;;5.70;82.00;;;;;;5096430;28;19912;-80
2020/12/07 02:12:17;;;;;;;;;;;5.70;82.10;;;;;;5079646;28;19919;-80
2020/12/07 02:14:43;;;;;;;;;;;5.70;82.10;;;;;;5114648;28;19912;-80
2020/12/07 02:17:09;;;;;;;;;;;5.70;82.10;;;;;;5130779;27;19923;-80
2020/12/07 02:19:34;;;;;;;;;;;5.70;82.10;;;;;;5096261;28;20372;-80
2020/12/07 02:22:00;;;;;;;;;;;5.70;82.20;;;;;;5114354;28;19912;-80
2020/12/07 02:24:25;;;;;;;;;;;5.70;82.80;;;;;;5096509;28;20276;-81
2020/12/07 02:26:51;;;;;;;;;;;5.70;82.30;;;;;;5095931;28;19961;-80
2020/12/07 02:29:16;;;;;;;;;;;5.70;82.60;;;;;;5114725;28;20007;-80
2020/12/07 02:31:42;;;;;;;;;;;5.70;82.60;;;;;;5095651;28;19919;-80
2020/12/07 02:34:07;;;;;;;;;;;5.70;82.50;;;;;;5114491;28;19915;-80
2020/12/07 02:36:33;;;;;;;;;;;5.70;82.50;;;;;;5079014;28;19919;-80
2020/12/07 02:38:58;;;;;;;;;;;5.70;82.50;;;;;;5114119;28;19912;-80
2020/12/07 02:41:24;;;;;;;;;;;5.70;82.60;;;;;;5079086;28;20075;-80
2020/12/07 02:43:49;;;;;;;;;;;5.60;82.60;;;;;;5129912;27;19955;-80
2020/12/07 02:46:15;;;;;;;;;;;5.60;82.70;;;;;;5104426;28;20285;-80
2020/12/07 02:48:40;;;;;;;;;;;5.60;82.50;;;;;;5093465;28;19908;-80
2020/12/07 02:51:07;;;;;;;;;;;5.60;82.60;;;;;;5093883;28;20425;-81
2020/12/07 02:53:32;;;;;;;;;;;5.60;82.60;;;;;;5092266;28;19931;-80
2020/12/07 02:55:58;;;;;;;;;;;5.70;82.50;;;;;;5092040;28;20369;-81
2020/12/07 02:58:23;;;;;;;;;;;5.60;82.40;;;;;;5093404;28;19955;-80
2020/12/07 03:00:48;;;;;;;;;;;5.70;82.40;;;;;;5075004;28;20415;-81
2020/12/07 03:03:14;;;;;;;;;;;5.70;82.40;;;;;;5093186;28;19973;-81
2020/12/07 03:05:39;;;;;;;;;;;5.70;82.40;;;;;;5093436;28;19912;-80
2020/12/07 03:08:05;;;;;;;;;;;5.70;82.40;;;;;;5093824;28;19912;-80
2020/12/07 03:10:30;;;;;;;;;;;5.70;82.50;;;;;;5093281;28;20246;-80
2020/12/07 03:12:56;;;;;;;;;;;5.70;82.40;;;;;;5091615;28;19919;-80
2020/12/07 03:15:22;;;;;;;;;;;5.70;82.40;;;;;;5093024;28;19923;-81
2020/12/07 03:17:47;;;;;;;;;;;5.70;82.30;;;;;;5091647;28;19919;-80
2020/12/07 03:20:12;;;;;;;;;;;5.70;82.30;;;;;;5091665;28;19913;-81
2020/12/07 03:22:38;;;;;;;;;;;5.70;82.30;;;;;;5091917;28;19912;-80
2020/12/07 03:25:04;;;;;;;;;;;5.70;82.50;;;;;;5074453;28;19963;-81
2020/12/07 03:27:29;;;;;;;;;;;5.60;82.50;;;;;;5092973;28;19908;-80
2020/12/07 03:29:55;;;;;;;;;;;5.60;82.60;;;;;;5074655;28;19915;-80
2020/12/07 03:32:20;;;;;;;;;;;5.60;82.70;;;;;;5091521;28;20259;-80
2020/12/07 03:34:46;;;;;;;;;;;5.60;82.60;;;;;;5074389;28;19912;-80
2020/12/07 03:37:11;;;;;;;;;;;5.60;82.50;;;;;;5074448;28;19977;-81
2020/12/07 03:39:37;;;;;;;;;;;5.60;82.50;;;;;;5092530;28;19920;-80
2020/12/07 03:42:02;;;;;;;;;;;5.60;82.40;;;;;;5091525;28;19955;-80
2020/12/07 03:44:28;;;;;;;;;;;5.60;82.30;;;;;;5091567;28;19951;-80
2020/12/07 03:46:53;;;;;;;;;;;5.70;82.30;;;;;;5108842;28;19955;-81
2020/12/07 03:49:19;;;;;;;;;;;5.70;82.30;;;;;;5112766;28;19908;-81
2020/12/07 03:51:44;;;;;;;;;;;5.70;82.10;;;;;;5112933;28;19912;-80
2020/12/07 03:54:10;;;;;;;;;;;5.70;82.10;;;;;;5094190;28;19916;-81
2020/12/07 03:56:35;;;;;;;;;;;5.70;82.10;;;;;;5112509;28;20321;-80
2020/12/07 03:59:01;;;;;;;;;;;5.70;82.00;;;;;;5094577;28;19916;-80
2020/12/07 04:01:26;;;;;;;;;;;5.70;82.00;;;;;;5112304;28;19980;-80
2020/12/07 04:03:54;;;;;;;;;;;5.70;82.00;;;;;;5077362;28;20494;-81
2020/12/07 04:06:27;;;;;;;;;;;5.70;81.90;;;;;;5094702;28;19922;-80
2020/12/07 04:08:52;;;;;;;;;;;5.70;81.90;;;;;;5112736;28;20273;-80
2020/12/07 04:11:18;;;;;;;;;;;5.70;82.00;;;;;;5112799;28;19908;-80
2020/12/07 04:13:43;;;;;;;;;;;5.70;82.10;;;;;;5079306;28;19957;-80
2020/12/07 04:16:09;;;;;;;;;;;5.70;82.10;;;;;;5093388;28;19920;-81
2020/12/07 04:18:34;;;;;;;;;;;5.70;82.20;;;;;;5078261;28;20331;-81
2020/12/07 04:21:00;;;;;;;;;;;5.60;82.30;;;;;;5096065;28;20259;-80
2020/12/07 04:23:26;;;;;;;;;;;5.60;82.40;;;;;;5095070;28;20262;-81
2020/12/07 04:25:52;;;;;;;;;;;5.60;82.30;;;;;;5077728;28;19931;-80
2020/12/07 04:28:18;;;;;;;;;;;5.60;82.40;;;;;;5096164;28;19908;-81
2020/12/07 04:30:43;;;;;;;;;;;5.60;82.50;;;;;;5096321;28;20015;-80
2020/12/07 04:33:08;;;;;;;;;;;5.60;82.50;;;;;;5095783;28;19931;-80
2020/12/07 04:35:34;;;;;;;;;;;5.60;82.60;;;;;;5094688;28;20015;-80
2020/12/07 04:38:00;;;;;;;;;;;5.60;82.60;;;;;;5077600;28;20423;-80
2020/12/07 04:40:26;;;;;;;;;;;5.60;82.70;;;;;;5084563;23;19960;-83
2020/12/07 04:42:52;;;;;;;;;;;5.60;82.60;;;;;;5076683;28;20006;-83
2020/12/07 04:45:17;;;;;;;;;;;5.60;82.60;;;;;;5076953;28;20395;-83
2020/12/07 04:47:44;;;;;;;;;;;5.60;82.60;;;;;;5094778;28;20401;-83
2020/12/07 04:50:10;;;;;;;;;;;5.60;82.50;;;;;;5076492;28;19908;-83
2020/12/07 04:52:37;;;;;;;;;;;5.60;82.50;;;;;;5076776;28;19927;-83
2020/12/07 04:55:04;;;;;;;;;;;5.60;82.50;;;;;;5076356;28;19908;-83
2020/12/07 04:57:30;;;;;;;;;;;5.60;82.50;;;;;;5094762;28;19912;-83
2020/12/07 04:59:56;;;;;;;;;;;5.60;82.60;;;;;;5094450;28;20036;-83
2020/12/07 05:02:21;;;;;;;;;;;5.60;82.50;;;;;;5076553;28;20423;-83
2020/12/07 05:04:47;;;;;;;;;;;5.60;82.40;;;;;;5059386;28;19916;-83
2020/12/07 05:07:12;;;;;;;;;;;5.60;82.40;;;;;;5076566;28;19923;-83
2020/12/07 05:09:39;;;;;;;;;;;5.60;82.30;;;;;;5076390;28;19970;-83
2020/12/07 05:12:12;;;;;;;;;;;5.60;82.30;;;;;;5093333;28;19920;-83
2020/12/07 05:14:38;;;;;;;;;;;5.60;82.40;;;;;;5076491;28;19920;-83
2020/12/07 05:17:03;;;;;;;;;;;5.60;82.40;;;;;;5092866;28;19961;-83
2020/12/07 05:19:29;;;;;;;;;;;5.60;82.30;;;;;;5110197;28;19912;-83
2020/12/07 05:21:54;;;;;;;;;;;5.60;82.30;;;;;;5109895;28;20006;-83
2020/12/07 05:24:19;;;;;;;;;;;5.60;82.30;;;;;;5075759;28;19922;-83
2020/12/07 05:26:45;;;;;;;;;;;5.50;82.40;;;;;;5093702;28;20250;-83
2020/12/07 05:29:19;;;;;;;;;;;5.60;82.50;;;;;;5109596;28;19919;-83
2020/12/07 05:31:44;;;;;;;;;;;5.60;82.40;;;;;;5075486;28;19916;-83
2020/12/07 05:34:10;;;;;;;;;;;5.60;82.30;;;;;;5075268;28;19916;-83
2020/12/07 05:36:36;;;;;;;;;;;5.60;82.20;;;;;;5076269;28;19916;-86
2020/12/07 05:39:05;;;;;;;;;;;5.60;82.10;;;;;;5093976;28;20258;-85
2020/12/07 05:41:30;;;;;;;;;;;5.60;82.00;;;;;;5075968;28;19920;-85
2020/12/07 05:43:57;;;;;;;;;;;5.60;82.00;;;;;;5075255;28;19920;-83
2020/12/07 05:46:27;;;;;;;;;;;5.60;81.90;;;;;;5070343;28;19916;-83
2020/12/07 05:48:53;;;;;;;;;;;5.70;82.00;;;;;;5074313;28;19912;-83
2020/12/07 05:51:21;;;;;;;;;;;5.70;82.00;;;;;;5092025;28;19912;-83
2020/12/07 05:53:47;;;;;;;;;;;5.60;81.80;;;;;;5110403;28;19908;-82
2020/12/07 05:56:13;;;;;;;;;;;5.60;81.90;;;;;;5094681;28;19912;-82
2020/12/07 05:58:47;;;;;;;;;;;5.60;81.90;;;;;;5094918;28;19916;-82
2020/12/07 06:01:16;;;;;;;;;;;5.60;81.80;;;;;;5076128;28;19912;-82
2020/12/07 06:03:42;;;;;;;;;;;5.70;82.00;;;;;;5076008;28;20284;-82
2020/12/07 06:06:08;;;;;;;;;;;5.60;81.80;;;;;;5074605;28;20023;-84
2020/12/07 06:08:34;;;;;;;;;;;5.70;81.80;;;;;;5075295;28;19999;-83
2020/12/07 06:11:10;;;;;;;;;;;5.70;81.80;;;;;;5094264;28;20012;-83
2020/12/07 06:13:36;;;;;;;;;;;5.70;81.80;;;;;;5092957;28;19923;-83
2020/12/07 06:16:03;;;;;;;;;;;5.70;81.70;;;;;;5093782;28;19916;-83
2020/12/07 06:18:30;;;;;;;;;;;5.70;81.70;;;;;;5094296;28;20016;-83
2020/12/07 06:21:05;;;;;;;;;;;5.70;81.70;;;;;;5093760;28;19916;-83
2020/12/07 06:23:31;;;;;;;;;;;5.70;81.60;;;;;;5075641;28;19908;-83
2020/12/07 06:26:00;;;;;;;;;;;5.70;81.60;;;;;;5092540;28;19986;-83
2020/12/07 06:28:27;;;;;;;;;;;5.70;81.60;;;;;;5093499;28;19919;-83
2020/12/07 06:30:54;;;;;;;;;;;5.70;81.50;;;;;;5091656;28;21339;-83
2020/12/07 06:33:20;;;;;;;;;;;5.70;81.50;;;;;;5108686;28;19912;-83
2020/12/07 06:35:46;;;;;;;;;;;5.70;81.50;;;;;;5092845;28;19924;-83
2020/12/07 06:38:12;;;;;;;;;;;5.70;81.50;;;;;;5072963;28;19920;-83
2020/12/07 06:40:38;;;;;;;;;;;5.70;81.50;;;;;;5073059;28;20408;-83
2020/12/07 06:43:17;;;;;;;;;;;5.70;81.50;;;;;;5107865;28;19912;-83
2020/12/07 06:45:42;;;;;;;;;;;5.70;81.40;;;;;;5072709;28;19920;-83
2020/12/07 06:48:08;;;;;;;;;;;5.70;81.30;;;;;;5072144;28;19912;-83
2020/12/07 06:50:39;;;;;;;;;;;5.70;81.30;;;;;;5055520;28;20010;-83
2020/12/07 06:53:21;;;;;;;;;;;5.70;81.20;;;;;;5106104;28;20356;-83
2020/12/07 06:55:46;;;;;;;;;;;5.70;81.20;;;;;;5072477;28;19920;-83
2020/12/07 06:58:28;;;;;;;;;;;5.70;81.20;;;;;;5070791;28;20343;-83
2020/12/07 07:00:53;;;;;;;;;;;5.70;81.20;;;;;;5090356;28;19916;-83
2020/12/07 07:03:19;;;;;;;;;;;5.70;81.10;;;;;;5057696;28;19912;-83
2020/12/07 07:05:44;;;;;;;;;;;5.70;81.10;;;;;;5090965;28;19963;-82
2020/12/07 07:08:10;;;;;;;;;;;5.70;81.10;;;;;;5056623;28;19920;-83
2020/12/07 07:10:35;;;;;;;;;;;5.70;81.10;;;;;;5056659;28;19924;-83
2020/12/07 07:13:01;;;;;;;;;;;5.70;81.70;;;;;;5072959;28;19920;-83
2020/12/07 07:15:26;;;;;;;;;;;5.60;81.10;;;;;;5057033;28;20016;-83
2020/12/07 07:17:52;;;;;;;;;;;5.70;81.10;;;;;;5053747;28;19923;-82
2020/12/07 07:20:17;;;;;;;;;;;5.70;81.10;;;;;;5068714;28;20335;-82
2020/12/07 07:22:45;;;;;;;;;;;5.70;81.10;;;;;;5072325;28;19920;-83
2020/12/07 07:30:25;;;;;;;;;;;5.60;81.00;;;;;;5089665;28;19934;-83
2020/12/07 07:32:52;;;;;;;;;;;5.70;81.00;;;;;;5087662;28;20006;-82
2020/12/07 07:35:18;;;;;;;;;;;5.60;81.00;;;;;;5090460;28;20019;-82
2020/12/07 07:37:44;;;;;;;;;;;5.60;81.10;;;;;;5072864;28;19959;-82
2020/12/07 07:40:11;;;;;;;;;;;5.70;81.00;;;;;;5088227;28;19955;-82
2020/12/07 07:42:41;;;;;;;;;;;5.70;81.00;;;;;;5090524;28;19920;-82
2020/12/07 07:45:07;;;;;;;;;;;5.60;80.90;;;;;;5090024;28;19917;-82
2020/12/07 07:47:40;;;;;;;;;;;5.60;80.90;;;;;;5069026;28;20312;-82
2020/12/07 07:53:47;;;;;;;;;;;5.70;80.90;;;;;;5081364;28;19967;-83
2020/12/07 08:17:11;;;;;;;;;;;5.60;80.80;;;;;;5112600;27;19926;-83
2020/12/07 08:19:36;;;;;;;;;;;5.60;80.80;;;;;;5096737;28;19916;-82
2020/12/07 08:22:14;;;;;;;;;;;5.60;80.80;;;;;;5095424;28;19916;-83
2020/12/07 08:25:00;;;;;;;;;;;5.60;80.80;;;;;;5076619;28;19912;-82
2020/12/07 08:27:32;;;;;;;;;;;5.50;80.80;;;;;;5077348;28;20332;-83
2020/12/07 08:30:01;;;;;;;;;;;5.50;80.80;;;;;;5077956;28;19912;-83
2020/12/07 08:32:27;;;;;;;;;;;5.50;80.90;;;;;;5090302;28;19916;-84
2020/12/07 08:34:52;;;;;;;;;;;5.50;80.90;;;;;;5091208;28;19912;-83
2020/12/07 08:37:18;;;;;;;;;;;5.50;80.90;;;;;;5077646;28;20369;-83
2020/12/07 08:39:43;;;;;;;;;;;5.50;80.90;;;;;;5094338;28;20254;-83
2020/12/07 08:42:09;;;;;;;;;;;5.50;80.80;;;;;;5095737;28;19923;-83
2020/12/07 08:44:34;;;;;;;;;;;5.50;80.80;;;;;;5078191;28;19919;-83
2020/12/07 08:47:00;;;;;;;;;;;5.50;80.80;;;;;;5077893;28;19919;-82
2020/12/07 08:49:25;;;;;;;;;;;5.50;80.80;;;;;;5078037;28;19957;-83
2020/12/07 08:51:52;;;;;;;;;;;5.50;80.70;;;;;;5077831;28;19913;-83
2020/12/07 08:54:17;;;;;;;;;;;5.50;80.80;;;;;;5077493;28;19915;-82
2020/12/07 08:56:43;;;;;;;;;;;5.50;80.70;;;;;;5096176;28;19908;-83
2020/12/07 08:59:08;;;;;;;;;;;5.50;80.70;;;;;;5077074;28;20388;-83
2020/12/07 09:01:34;;;;;;;;;;;5.50;80.80;;;;;;5110504;28;19916;-83
2020/12/07 09:04:02;;;;;;;;;;;5.50;80.80;;;;;;5095451;28;19912;-83
2020/12/07 09:06:28;;;;;;;;;;;5.50;80.80;;;;;;5093695;28;19921;-83
2020/12/07 09:08:54;;;;;;;;;;;5.50;80.80;;;;;;5077616;28;19912;-83
2020/12/07 09:11:19;;;;;;;;;;;5.40;80.80;;;;;;5077491;28;19912;-83
2020/12/07 09:13:45;;;;;;;;;;;5.40;80.80;;;;;;5095809;28;19914;-83
2020/12/07 09:16:11;;;;;;;;;;;5.40;80.80;;;;;;5095355;28;19953;-82
2020/12/07 09:18:40;;;;;;;;;;;5.40;80.80;;;;;;5095410;28;19912;-82
2020/12/07 09:21:06;;;;;;;;;;;5.40;80.80;;;;;;5076384;28;20221;-82
2020/12/07 09:23:35;;;;;;;;;;;5.40;80.80;;;;;;5094750;28;20417;-83
2020/12/07 09:26:04;;;;;;;;;;;5.40;80.80;;;;;;5076415;28;19912;-83
2020/12/07 09:28:30;;;;;;;;;;;5.40;80.90;;;;;;5060487;28;19913;-83
2020/12/07 09:30:56;;;;;;;;;;;5.40;80.80;;;;;;5060720;28;19923;-83
2020/12/07 09:33:21;;;;;;;;;;;5.40;80.90;;;;;;5077374;28;19966;-83
2020/12/07 09:35:47;;;;;;;;;;;5.40;80.80;;;;;;5057912;28;19913;-84
2020/12/07 09:38:12;;;;;;;;;;;5.40;80.80;;;;;;5074376;28;19912;-83
2020/12/07 09:40:38;;;;;;;;;;;5.40;80.80;;;;;;5090944;28;19943;-82
2020/12/07 09:43:03;;;;;;;;;;;5.40;80.80;;;;;;5077274;28;19916;-83
2020/12/07 09:45:29;;;;;;;;;;;5.40;80.90;;;;;;5077131;28;19931;-83
2020/12/07 09:47:55;;;;;;;;;;;5.40;80.80;;;;;;5075305;28;20003;-83
2020/12/07 09:50:20;;;;;;;;;;;5.40;80.80;;;;;;5092699;28;19909;-85
2020/12/07 09:52:46;;;;;;;;;;;5.40;80.80;;;;;;5073074;28;19916;-82
2020/12/07 09:55:11;;;;;;;;;;;5.40;80.80;;;;;;5063280;28;19951;-82
2020/12/07 09:57:37;;;;;;;;;;;5.40;80.80;;;;;;5077613;28;19961;-83
2020/12/07 10:00:04;;;;;;;;;;;5.40;81.00;;;;;;5075968;28;19916;-83
2020/12/07 10:02:29;;;;;;;;;;;5.40;80.90;;;;;;5097650;28;20292;-83
2020/12/07 10:04:55;;;;;;;;;;;5.40;80.90;;;;;;5078348;28;19919;-83
2020/12/07 10:07:20;;;;;;;;;;;5.40;80.90;;;;;;5062289;28;19989;-83
2020/12/07 10:09:46;;;;;;;;;;;5.40;80.90;;;;;;5060937;28;19965;-83
2020/12/07 10:12:11;;;;;;;;;;;5.40;80.90;;;;;;5076176;28;19916;-84
2020/12/07 10:14:37;;;;;;;;;;;5.40;80.80;;;;;;5059937;28;19913;-83
2020/12/07 10:17:02;;;;;;;;;;;5.40;80.80;;;;;;5076466;28;19908;-83
2020/12/07 10:19:29;;;;;;;;;;;5.40;80.80;;;;;;5072847;28;19936;-82
2020/12/07 10:21:54;;;;;;;;;;;5.40;80.90;;;;;;5076512;28;19934;-83
2020/12/07 10:24:20;;;;;;;;;;;5.50;81.50;;;;;;5094380;28;19971;-82
2020/12/07 10:26:46;;;;;;;;;;;5.50;81.00;;;;;;5094425;28;20282;-82
2020/12/07 10:29:11;;;;;;;;;;;5.40;80.90;;;;;;5076038;28;19919;-83
2020/12/07 10:31:37;;;;;;;;;;;5.50;80.90;;;;;;5076623;28;20007;-82
2020/12/07 10:34:02;;;;;;;;;;;5.50;80.90;;;;;;5059135;28;19919;-82
2020/12/07 10:36:28;;;;;;;;;;;5.40;80.90;;;;;;5076298;28;19991;-83
2020/12/07 10:38:53;;;;;;;;;;;5.40;80.90;;;;;;5076071;28;20427;-82
2020/12/07 10:41:25;;;;;;;;;;;5.50;81.00;;;;;;5066039;23;19928;-82
2020/12/07 10:43:50;;;;;;;;;;;5.50;81.00;;;;;;5074447;28;20399;-83
2020/12/07 10:46:16;;;;;;;;;;;5.40;81.10;;;;;;5092198;28;19912;-83
2020/12/07 10:48:41;;;;;;;;;;;5.40;81.10;;;;;;5074464;28;20125;-83
2020/12/07 10:51:11;;;;;;;;;;;5.50;81.10;;;;;;5092580;28;20025;-83
2020/12/07 10:53:36;;;;;;;;;;;5.50;81.00;;;;;;5092903;28;19912;-83
2020/12/07 10:56:02;;;;;;;;;;;5.50;81.20;;;;;;5074413;28;19923;-82
2020/12/07 10:58:27;;;;;;;;;;;5.50;81.20;;;;;;5074705;28;20327;-82
2020/12/07 11:00:53;;;;;;;;;;;5.50;81.10;;;;;;5074121;28;19931;-83
2020/12/07 11:03:19;;;;;;;;;;;5.50;81.10;;;;;;5075122;28;20417;-82
2020/12/07 11:05:44;;;;;;;;;;;5.50;81.20;;;;;;5061880;28;19996;-83
2020/12/07 11:08:55;;;;;;;;;;;5.50;81.10;;;;;;5038093;28;19921;-82
2020/12/07 11:10:59;;;;;;;;;;;5.50;81.10;;;;;;5080525;28;19916;-82
2020/12/07 11:13:27;;;;;;;;;;;5.50;81.00;;;;;;5054874;28;19915;-83
2020/12/07 11:15:54;;;;;;;;;;;5.60;81.10;;;;;;5046493;28;19924;-82
2020/12/07 11:18:19;;;;;;;;;;;5.60;81.00;;;;;;5054125;28;19948;-82
2020/12/07 11:20:45;;;;;;;;;;;5.60;81.10;;;;;;5072418;28;19970;-83
2020/12/07 11:23:10;;;;;;;;;;;5.60;81.20;;;;;;5036654;28;19917;-83
2020/12/07 11:25:36;;;;;;;;;;;5.60;81.20;;;;;;5054644;28;19909;-83
2020/12/07 11:28:02;;;;;;;;;;;5.60;81.20;;;;;;5073081;28;20456;-83
2020/12/07 11:30:27;;;;;;;;;;;5.60;81.10;;;;;;5063749;28;19916;-82
2020/12/07 11:32:53;;;;;;;;;;;5.60;81.10;;;;;;5058544;28;20349;-82
2020/12/07 11:35:18;;;;;;;;;;;5.60;81.20;;;;;;5058048;28;20293;-82
2020/12/07 11:37:46;;;;;;;;;;;5.60;81.30;;;;;;5093222;28;20369;-82
2020/12/07 11:40:24;;;;;;;;;;;5.60;81.30;;;;;;5083004;28;19976;-82
2020/12/07 11:42:56;;;;;;;;;;;5.60;81.20;;;;;;5057093;28;19958;-83
2020/12/07 11:45:21;;;;;;;;;;;5.60;81.20;;;;;;5055731;28;19916;-82
2020/12/07 11:47:47;;;;;;;;;;;5.70;81.20;;;;;;5054941;28;19923;-83
2020/12/07 11:50:12;;;;;;;;;;;5.70;81.20;;;;;;5038084;28;19935;-83
2020/12/07 11:52:37;;;;;;;;;;;5.70;81.20;;;;;;5073156;28;19912;-82
2020/12/07 11:55:03;;;;;;;;;;;5.70;81.10;;;;;;5055147;28;19960;-83
2020/12/07 11:57:29;;;;;;;;;;;5.70;81.30;;;;;;5054962;28;19912;-82
2020/12/07 11:59:54;;;;;;;;;;;5.70;81.50;;;;;;5054905;28;20285;-82
2020/12/07 12:02:20;;;;;;;;;;;5.70;81.40;;;;;;5054639;28;20007;-83
2020/12/07 12:04:45;;;;;;;;;;;5.70;81.40;;;;;;5055003;28;19913;-83
2020/12/07 12:07:11;;;;;;;;;;;5.70;81.40;;;;;;5054573;28;20274;-83
2020/12/07 12:09:37;;;;;;;;;;;5.80;81.40;;;;;;5073146;28;19974;-82
2020/12/07 12:12:05;;;;;;;;;;;5.80;81.40;;;;;;5074915;28;20361;-83
2020/12/07 12:14:31;;;;;;;;;;;5.80;81.40;;;;;;5058179;28;19919;-82
2020/12/07 12:16:56;;;;;;;;;;;5.80;81.40;;;;;;5075005;28;19920;-83
2020/12/07 12:19:22;;;;;;;;;;;5.80;81.40;;;;;;5074443;28;19958;-83
2020/12/07 12:21:47;;;;;;;;;;;5.80;81.30;;;;;;5074774;28;19959;-83
2020/12/07 12:24:13;;;;;;;;;;;5.90;81.40;;;;;;5074260;28;20273;-83
2020/12/07 12:26:40;;;;;;;;;;;5.90;81.40;;;;;;5081936;28;19908;-82
2020/12/07 12:29:06;;;;;;;;;;;5.90;81.50;;;;;;5054526;28;19979;-83
2020/12/07 12:31:32;;;;;;;;;;;5.90;81.50;;;;;;5042934;28;20033;-82
2020/12/07 12:33:57;;;;;;;;;;;5.90;82.10;;;;;;5075001;28;20284;-84
2020/12/07 12:36:24;;;;;;;;;;;5.90;81.40;;;;;;5071142;28;19999;-82
2020/12/07 12:38:50;;;;;;;;;;;6.00;81.40;;;;;;5090874;28;19961;-83
2020/12/07 12:41:16;;;;;;;;;;;6.00;81.70;;;;;;5077916;28;20312;-83
2020/12/07 12:43:41;;;;;;;;;;;6.00;81.50;;;;;;5078422;28;19912;-83
2020/12/07 12:46:07;;;;;;;;;;;6.00;81.60;;;;;;5077829;28;20270;-82
2020/12/07 12:48:33;;;;;;;;;;;6.00;81.50;;;;;;5095769;28;19912;-83
2020/12/07 12:50:58;;;;;;;;;;;6.10;81.50;;;;;;5076915;28;19908;-83
2020/12/07 12:53:24;;;;;;;;;;;6.10;81.40;;;;;;5059673;28;19967;-83
2020/12/07 12:55:50;;;;;;;;;;;6.10;81.30;;;;;;5076938;28;19973;-83
2020/12/07 12:58:15;;;;;;;;;;;6.10;81.30;;;;;;5093348;28;20015;-83
2020/12/07 13:00:41;;;;;;;;;;;6.10;81.30;;;;;;5076808;28;20010;-83
2020/12/07 13:03:06;;;;;;;;;;;6.20;81.30;;;;;;5076654;28;20281;-82
2020/12/07 13:05:32;;;;;;;;;;;6.20;81.20;;;;;;5094953;28;19913;-83
2020/12/07 13:07:58;;;;;;;;;;;6.20;81.30;;;;;;5076230;28;19924;-83
2020/12/07 13:10:23;;;;;;;;;;;6.20;81.40;;;;;;5076368;28;19965;-83
2020/12/07 13:12:49;;;;;;;;;;;6.20;81.90;;;;;;5061985;28;19924;-83
2020/12/07 13:15:15;;;;;;;;;;;6.30;81.40;;;;;;5039544;28;19913;-83
2020/12/07 13:17:41;;;;;;;;;;;6.30;81.30;;;;;;5064174;28;19927;-83
2020/12/07 13:20:10;;;;;;;;;;;6.30;81.30;;;;;;5077748;28;19927;-83
2020/12/07 13:23:00;;;;;;;;;;;6.30;81.20;;;;;;5056351;28;19957;-83
2020/12/07 13:25:36;;;;;;;;;;;6.30;81.30;;;;;;5044473;28;19920;-83
2020/12/07 13:28:13;;;;;;;;;;;6.40;81.30;;;;;;5074310;28;19974;-83
2020/12/07 13:30:39;;;;;;;;;;;6.40;81.10;;;;;;5041479;28;19913;-83
2020/12/07 13:33:04;;;;;;;;;;;6.40;81.10;;;;;;5077722;28;20016;-83
2020/12/07 13:35:30;;;;;;;;;;;6.40;81.10;;;;;;5064636;28;19924;-83
2020/12/07 13:37:55;;;;;;;;;;;6.40;81.00;;;;;;5084278;28;20015;-83
2020/12/07 13:40:21;;;;;;;;;;;6.40;81.00;;;;;;5081697;28;20002;-83
2020/12/07 13:42:46;;;;;;;;;;;6.40;81.00;;;;;;5080078;28;20361;-83
2020/12/07 13:45:12;;;;;;;;;;;6.40;80.90;;;;;;5085389;28;19916;-83
2020/12/07 13:47:37;;;;;;;;;;;6.50;80.90;;;;;;5044480;28;20061;-83
2020/12/07 13:50:04;;;;;;;;;;;6.50;80.90;;;;;;5058686;28;19916;-83
2020/12/07 13:52:29;;;;;;;;;;;6.50;80.90;;;;;;5082350;28;19998;-83
2020/12/07 13:54:55;;;;;;;;;;;6.50;80.80;;;;;;5057625;28;19925;-83
2020/12/07 13:57:21;;;;;;;;;;;6.50;80.80;;;;;;5073614;28;19908;-83
2020/12/07 13:59:46;;;;;;;;;;;6.50;80.70;;;;;;5056766;28;20010;-83
2020/12/07 14:02:12;;;;;;;;;;;6.60;80.70;;;;;;5087931;28;19912;-83
2020/12/07 14:04:59;;;;;;;;;;;6.60;80.70;;;;;;5039059;28;19917;-83
2020/12/07 14:07:26;;;;;;;;;;;6.60;80.70;;;;;;5055195;28;19924;-83
2020/12/07 14:09:52;;;;;;;;;;;6.60;80.60;;;;;;5073425;28;19948;-83
2020/12/07 14:12:18;;;;;;;;;;;6.70;80.60;;;;;;5055127;28;19916;-83
2020/12/07 14:14:43;;;;;;;;;;;6.60;80.50;;;;;;5073313;28;20384;-83
2020/12/07 14:17:11;;;;;;;;;;;6.60;80.60;;;;;;5072061;28;19917;-83
2020/12/07 14:19:46;;;;;;;;;;;6.70;80.70;;;;;;5055583;28;19962;-83
2020/12/07 14:27:45;;;;;;;;;;;6.60;80.50;;;;;;5073036;28;19995;-83
2020/12/07 14:41:09;;;;;;;;;;;6.70;80.50;;;;;;5080178;28;19939;-83
2020/12/07 14:43:34;;;;;;;;;;;6.70;80.50;;;;;;5061415;28;19931;-83
2020/12/07 14:46:22;;;;;;;;;;;6.70;80.50;;;;;;5054512;28;20330;-83
2020/12/07 14:48:48;;;;;;;;;;;6.70;80.50;;;;;;5072680;28;19917;-83
2020/12/07 14:54:00;;;;;;;;;;;6.70;80.50;;;;;;5072589;28;19909;-83
2020/12/07 14:56:33;;;;;;;;;;;6.70;80.40;;;;;;5051328;28;19916;-84
2020/12/07 15:05:22;;;;;;;;;;;6.70;80.30;;;;;;5053885;28;19919;-84
2020/12/07 15:10:39;;;;;;;;;;;6.70;80.30;;;;;;5066629;28;19920;-84
2020/12/07 15:14:57;;;;;;;;;;;6.70;80.20;;;;;;5065857;28;19986;-84
2020/12/07 15:17:23;;;;;;;;;;;6.80;80.30;;;;;;5071771;28;19909;-83
2020/12/07 15:19:49;;;;;;;;;;;6.80;80.30;;;;;;5060454;28;20266;-83
2020/12/07 15:22:14;;;;;;;;;;;6.70;80.20;;;;;;5090045;28;19909;-83
2020/12/07 15:24:40;;;;;;;;;;;6.70;80.20;;;;;;5090598;28;19949;-83
2020/12/07 15:27:05;;;;;;;;;;;6.80;80.20;;;;;;5056581;28;19916;-82